createdAt,value
2023-05-10T00:01:26.162Z,4.13
2023-05-10T00:03:52.782Z,4.68
2023-05-10T00:06:19.486Z,4.50
2023-05-10T00:08:46.412Z,4.63
2023-05-10T00:11:14.532Z,4.55
2023-05-10T00:13:42.415Z,4.87
2023-05-10T00:16:08.999Z,4.40
2023-05-10T00:18:35.805Z,4.57
2023-05-10T00:21:02.362Z,4.22
2023-05-10T00:23:28.983Z,3.92
2023-05-10T00:25:55.523Z,4.73
2023-05-10T00:28:23.797Z,4.15
2023-05-10T00:30:50.467Z,4.00
2023-05-10T00:33:17.100Z,3.88
2023-05-10T00:35:43.656Z,4.38
2023-05-10T00:38:10.246Z,4.90
2023-05-10T00:40:37.040Z,5.13
2023-05-10T00:43:03.633Z,5.03
2023-05-10T00:45:32.791Z,5.65
2023-05-10T00:48:00.002Z,5.80
2023-05-10T00:50:26.882Z,5.30
2023-05-10T00:52:53.733Z,5.55
2023-05-10T00:55:20.815Z,6.05
2023-05-10T00:57:48.088Z,6.00
2023-05-10T01:00:15.667Z,5.82
2023-05-10T01:02:43.824Z,5.00
2023-05-10T01:05:13.427Z,5.15
2023-05-10T01:07:40.735Z,5.47
2023-05-10T01:10:08.961Z,5.50
2023-05-10T01:12:38.039Z,5.72
2023-05-10T01:15:06.374Z,5.80
2023-05-10T01:17:34.044Z,6.15
2023-05-10T01:20:02.373Z,6.20
2023-05-10T01:23:01.105Z,6.88
2023-05-10T01:26:01.649Z,6.82
2023-05-10T01:28:48.674Z,6.87
2023-05-10T01:31:38.919Z,6.97
2023-05-10T01:34:10.211Z,6.97
2023-05-10T01:36:52.298Z,6.57
2023-05-10T01:39:25.505Z,6.50
2023-05-10T01:41:56.661Z,6.53
2023-05-10T01:44:32.210Z,7.22
2023-05-10T01:47:04.049Z,7.30
2023-05-10T01:49:36.000Z,6.90
2023-05-10T01:52:09.317Z,6.93
2023-05-10T01:54:39.396Z,6.67
2023-05-10T01:57:09.978Z,7.05
2023-05-10T01:59:39.085Z,7.35
2023-05-10T02:02:06.951Z,7.55
2023-05-10T02:04:38.090Z,6.97
2023-05-10T02:07:05.754Z,7.10
2023-05-10T02:09:34.485Z,6.78
2023-05-10T02:12:03.449Z,6.97
2023-05-10T02:14:33.349Z,6.72
2023-05-10T02:17:02.049Z,6.47
2023-05-10T02:19:29.913Z,6.50
2023-05-10T02:21:59.834Z,6.25
2023-05-10T02:24:27.289Z,6.43
2023-05-10T02:26:56.084Z,6.35
2023-05-10T02:29:43.085Z,6.10
2023-05-10T02:32:12.337Z,6.10
2023-05-10T02:34:40.344Z,5.93
2023-05-10T02:37:09.348Z,5.70
2023-05-10T02:39:36.386Z,5.45
2023-05-10T02:42:03.494Z,5.65
2023-05-10T02:44:30.640Z,5.53
2023-05-10T02:46:57.359Z,6.05
2023-05-10T02:49:23.981Z,5.10
2023-05-10T02:51:56.418Z,5.80
2023-05-10T02:54:30.401Z,5.88
2023-05-10T02:57:00.131Z,5.67
2023-05-10T02:59:26.737Z,5.97
2023-05-10T03:01:53.359Z,5.90
2023-05-10T03:04:20.110Z,6.43
2023-05-10T03:06:47.139Z,5.97
2023-05-10T03:09:14.136Z,6.20
2023-05-10T03:11:50.811Z,6.28
2023-05-10T03:14:26.619Z,6.07
2023-05-10T03:17:01.360Z,5.95
2023-05-10T03:19:33.276Z,6.45
2023-05-10T03:22:06.022Z,5.97
2023-05-10T03:24:36.191Z,6.10
2023-05-10T03:27:05.453Z,5.80
2023-05-10T03:29:32.770Z,5.90
2023-05-10T03:31:59.750Z,5.85
2023-05-10T03:34:26.803Z,6.40
2023-05-10T03:36:53.360Z,6.30
2023-05-10T03:39:20.163Z,6.63
2023-05-10T03:41:46.733Z,6.85
2023-05-10T03:44:14.665Z,6.18
2023-05-10T03:46:41.229Z,6.83
2023-05-10T03:49:07.831Z,6.40
2023-05-10T03:51:34.550Z,6.72
2023-05-10T03:54:01.070Z,6.75
2023-05-10T03:56:27.785Z,7.13
2023-05-10T03:58:54.444Z,7.50
2023-05-10T04:01:22.404Z,7.13
2023-05-10T04:03:49.121Z,7.07
2023-05-10T04:06:15.756Z,7.30
2023-05-10T04:08:42.290Z,7.45
2023-05-10T04:11:10.248Z,7.60
2023-05-10T04:13:36.896Z,7.95
2023-05-10T04:16:04.098Z,8.63
2023-05-10T04:18:32.077Z,8.52
2023-05-10T04:20:58.753Z,8.55
2023-05-10T04:23:25.495Z,8.90
2023-05-10T04:25:52.191Z,9.18
2023-05-10T04:28:18.814Z,9.23
2023-05-10T04:30:45.693Z,10.38
2023-05-10T04:33:12.316Z,10.02
2023-05-10T04:35:40.325Z,10.90
2023-05-10T04:38:06.896Z,10.70
2023-05-10T04:40:33.575Z,10.95
2023-05-10T04:43:00.188Z,10.75
2023-05-10T04:45:26.764Z,10.35
2023-05-10T04:47:53.409Z,11.00
2023-05-10T04:50:20.166Z,11.63
2023-05-10T04:52:48.504Z,11.13
2023-05-10T04:55:15.284Z,10.95
2023-05-10T04:57:41.877Z,11.35
2023-05-10T05:00:09.569Z,11.43
2023-05-10T05:02:36.267Z,10.95
2023-05-10T05:05:02.950Z,11.10
2023-05-10T05:07:29.521Z,11.15
2023-05-10T05:09:57.529Z,10.77
2023-05-10T05:12:24.110Z,11.00
2023-05-10T05:14:50.664Z,10.82
2023-05-10T05:17:17.232Z,11.40
2023-05-10T05:19:43.668Z,10.98
2023-05-10T05:22:10.300Z,10.90
2023-05-10T05:24:37.333Z,11.20
2023-05-10T05:27:05.278Z,10.27
2023-05-10T05:29:31.889Z,9.82
2023-05-10T05:31:59.076Z,10.95
2023-05-10T05:34:25.786Z,10.40
2023-05-10T05:36:52.335Z,11.07
2023-05-10T05:39:19.102Z,10.48
2023-05-10T05:41:45.664Z,10.00
2023-05-10T05:44:14.117Z,11.05
2023-05-10T05:46:40.692Z,10.00
2023-05-10T05:49:07.339Z,9.33
2023-05-10T05:51:33.961Z,9.32
2023-05-10T05:54:00.678Z,9.55
2023-05-10T05:56:27.264Z,9.23
2023-05-10T05:58:54.090Z,8.60
2023-05-10T06:01:22.137Z,9.20
2023-05-10T06:03:49.764Z,9.25
2023-05-10T06:06:17.563Z,8.95
2023-05-10T06:08:43.970Z,9.55
2023-05-10T06:11:10.506Z,9.95
2023-05-10T06:13:37.072Z,9.23
2023-05-10T06:16:03.807Z,9.55
2023-05-10T06:18:31.737Z,10.43
2023-05-10T06:20:58.413Z,8.98
2023-05-10T06:23:25.368Z,9.02
2023-05-10T06:25:52.220Z,8.90
2023-05-10T06:28:18.916Z,8.57
2023-05-10T06:30:45.529Z,7.88
2023-05-10T06:33:12.189Z,8.80
2023-05-10T06:35:40.365Z,9.55
2023-05-10T06:38:06.934Z,9.30
2023-05-10T06:40:33.564Z,8.85
2023-05-10T06:43:00.166Z,9.07
2023-05-10T06:45:26.721Z,9.80
2023-05-10T06:47:53.401Z,9.32
2023-05-10T06:50:20.072Z,9.83
2023-05-10T06:52:48.261Z,8.52
2023-05-10T06:55:15.292Z,9.45
2023-05-10T06:57:42.071Z,9.05
2023-05-10T07:00:09.310Z,9.13
2023-05-10T07:02:36.151Z,9.17
2023-05-10T07:05:03.576Z,9.10
2023-05-10T07:07:30.354Z,8.88
2023-05-10T07:09:58.438Z,9.65
2023-05-10T07:12:25.281Z,9.88
2023-05-10T07:14:51.883Z,9.73
2023-05-10T07:17:18.652Z,9.68
2023-05-10T07:19:45.296Z,9.95
2023-05-10T07:22:11.934Z,9.23
2023-05-10T07:24:38.572Z,9.38
2023-05-10T07:27:06.649Z,10.10
2023-05-10T07:29:33.619Z,9.77
2023-05-10T07:32:00.297Z,9.43
2023-05-10T07:34:26.944Z,9.05
2023-05-10T07:36:53.976Z,9.50
2023-05-10T07:39:26.707Z,9.57
2023-05-10T07:41:54.686Z,8.60
2023-05-10T07:44:22.713Z,8.60
2023-05-10T07:46:49.447Z,9.02
2023-05-10T07:49:16.278Z,9.57
2023-05-10T07:51:42.975Z,9.27
2023-05-10T07:54:09.595Z,8.90
2023-05-10T07:56:36.282Z,9.65
2023-05-10T07:59:04.244Z,10.02
2023-05-10T08:01:34.462Z,9.13
2023-05-10T08:04:01.873Z,8.87
2023-05-10T08:06:28.771Z,7.93
2023-05-10T08:08:55.235Z,7.97
2023-05-10T08:11:21.841Z,8.45
2023-05-10T08:13:49.915Z,8.32
2023-05-10T08:16:16.846Z,7.97
2023-05-10T08:18:45.779Z,8.65
2023-05-10T08:21:12.539Z,9.20
2023-05-10T08:23:39.176Z,8.82
2023-05-10T08:26:05.891Z,8.05
2023-05-10T08:28:32.629Z,8.43
2023-05-10T08:30:59.297Z,9.90
2023-05-10T08:33:28.062Z,10.82
2023-05-10T08:35:55.926Z,11.07
2023-05-10T08:38:22.628Z,10.68
2023-05-10T08:40:50.758Z,11.00
2023-05-10T08:43:17.696Z,11.95
2023-05-10T08:45:45.591Z,10.70
2023-05-10T08:48:12.393Z,11.38
2023-05-10T08:50:43.691Z,11.85
2023-05-10T08:53:13.139Z,11.93
2023-05-10T08:55:40.788Z,11.75
2023-05-10T08:58:07.781Z,12.20
2023-05-10T09:00:34.885Z,12.50
2023-05-10T09:03:03.860Z,11.90
2023-05-10T09:05:30.556Z,13.00
2023-05-10T09:07:57.150Z,12.70
2023-05-10T09:10:26.743Z,13.27
2023-05-10T09:12:54.345Z,13.35
2023-05-10T09:15:21.130Z,12.40
2023-05-10T09:17:50.113Z,13.77
2023-05-10T09:20:16.882Z,12.73
2023-05-10T09:22:43.528Z,12.73
2023-05-10T09:25:12.498Z,13.10
2023-05-10T09:27:41.558Z,13.70
2023-05-10T09:30:09.836Z,14.60
2023-05-10T09:32:40.817Z,13.35
2023-05-10T09:35:08.858Z,12.85
2023-05-10T09:37:35.550Z,13.70
2023-05-10T09:40:05.776Z,12.70
2023-05-10T09:42:32.372Z,12.83
2023-05-10T09:45:03.461Z,11.98
2023-05-10T09:47:30.085Z,11.50
2023-05-10T09:49:58.761Z,11.23
2023-05-10T09:52:25.350Z,10.98
2023-05-10T09:54:54.551Z,10.70
2023-05-10T09:57:22.180Z,10.38
2023-05-10T09:59:49.176Z,10.10
2023-05-10T10:02:17.443Z,9.82
2023-05-10T10:04:44.221Z,9.30
2023-05-10T10:07:10.867Z,9.63
2023-05-10T10:09:37.512Z,9.32
2023-05-10T10:12:04.933Z,8.75
2023-05-10T10:14:31.667Z,8.13
2023-05-10T10:19:34.248Z,8.57
2023-05-10T10:22:01.312Z,8.10
2023-05-10T10:24:28.080Z,7.80
2023-05-10T10:26:58.230Z,7.65
2023-05-10T10:29:32.255Z,7.13
2023-05-10T10:32:10.285Z,7.57
2023-05-10T10:34:40.386Z,7.68
2023-05-10T10:37:08.362Z,7.53
2023-05-10T10:39:34.957Z,7.68
2023-05-10T10:42:01.604Z,7.45
2023-05-10T10:44:36.593Z,8.17
2023-05-10T10:47:06.042Z,7.70
2023-05-10T10:49:33.569Z,8.55
2023-05-10T10:52:33.296Z,8.68
2023-05-10T10:55:02.254Z,8.52
2023-05-10T10:57:29.525Z,9.70
2023-05-10T11:00:30.281Z,8.85
2023-05-10T11:03:03.509Z,8.63
2023-05-10T11:05:41.538Z,9.40
2023-05-10T11:08:20.290Z,8.18
2023-05-10T11:10:55.254Z,8.27
2023-05-10T11:13:30.100Z,8.02
2023-05-10T11:15:57.293Z,7.85
2023-05-10T11:18:26.288Z,7.50
2023-05-10T11:20:53.803Z,6.75
2023-05-10T11:23:23.497Z,7.20
2023-05-10T11:25:50.484Z,6.55
2023-05-10T11:28:18.910Z,7.03
2023-05-10T11:30:46.260Z,6.95
2023-05-10T11:33:17.212Z,8.27
2023-05-10T11:35:44.015Z,7.43
2023-05-10T11:38:12.005Z,7.47
2023-05-10T11:40:40.680Z,7.72
2023-05-10T11:43:09.236Z,8.30
2023-05-10T11:45:36.170Z,7.57
2023-05-10T11:48:04.021Z,7.97
2023-05-10T11:50:30.771Z,8.35
2023-05-10T11:52:58.173Z,8.63
2023-05-10T11:55:25.056Z,8.93
2023-05-10T11:57:55.143Z,9.30
2023-05-10T12:00:22.210Z,9.57
2023-05-10T12:02:49.451Z,9.85
2023-05-10T12:05:16.320Z,9.40
2023-05-10T12:07:42.939Z,9.25
2023-05-10T12:10:10.986Z,10.23
2023-05-10T12:12:41.646Z,10.23
2023-05-10T12:15:12.057Z,9.48
2023-05-10T12:17:40.702Z,9.95
2023-05-10T12:20:16.274Z,9.43
2023-05-10T12:22:45.937Z,9.70
2023-05-10T12:25:12.578Z,8.30
2023-05-10T12:27:39.264Z,7.40
2023-05-10T12:30:07.138Z,8.02
2023-05-10T12:32:42.326Z,8.15
2023-05-10T12:35:09.360Z,8.63
2023-05-10T12:37:36.347Z,8.50
2023-05-10T12:40:03.137Z,8.50
2023-05-10T12:42:29.888Z,7.82
2023-05-10T12:44:57.127Z,8.25
2023-05-10T12:47:23.694Z,7.65
2023-05-10T12:49:51.690Z,8.80
2023-05-10T12:52:18.317Z,7.45
2023-05-10T12:54:44.958Z,8.18
2023-05-10T12:57:11.568Z,7.53
2023-05-10T12:59:38.416Z,7.88
2023-05-10T13:02:05.305Z,7.57
2023-05-10T13:04:32.014Z,7.53
2023-05-10T13:07:00.137Z,7.53
2023-05-10T13:09:28.620Z,7.57
2023-05-10T13:11:55.201Z,7.30
2023-05-10T13:14:21.956Z,7.60
2023-05-10T13:16:48.779Z,6.75
2023-05-10T13:19:16.558Z,7.25
2023-05-10T13:21:43.309Z,7.47
2023-05-10T13:24:11.466Z,7.82
2023-05-10T13:26:38.162Z,7.53
2023-05-10T13:29:04.717Z,8.02
2023-05-10T13:31:31.393Z,8.32
2023-05-10T13:33:58.021Z,7.75
2023-05-10T13:36:24.634Z,8.15
2023-05-10T13:38:51.260Z,8.83
2023-05-10T13:41:19.236Z,8.52
2023-05-10T13:43:45.795Z,8.85
2023-05-10T13:46:12.434Z,8.95
2023-05-10T13:48:39.280Z,8.95
2023-05-10T13:51:05.981Z,9.50
2023-05-10T13:53:32.556Z,8.95
2023-05-10T13:56:02.027Z,8.70
2023-05-10T13:58:30.004Z,9.27
2023-05-10T14:04:18.385Z,8.77
2023-05-10T14:06:44.961Z,9.73
2023-05-10T14:09:11.540Z,9.95
2023-05-10T14:11:38.115Z,9.75
2023-05-10T14:14:06.042Z,9.57
2023-05-10T14:16:32.655Z,10.10
2023-05-10T14:18:59.269Z,10.48
2023-05-10T14:21:25.985Z,10.93
2023-05-10T14:23:52.536Z,10.80
2023-05-10T14:26:19.113Z,10.52
2023-05-10T14:28:45.755Z,10.17
2023-05-10T14:31:13.856Z,9.77
2023-05-10T14:33:40.533Z,9.60
2023-05-10T14:36:07.752Z,9.15
2023-05-10T14:38:34.176Z,9.15
2023-05-10T14:41:00.766Z,9.73
2023-05-10T14:43:27.439Z,8.30
2023-05-10T14:45:55.520Z,8.60
2023-05-10T14:48:23.530Z,8.23
2023-05-10T14:50:50.094Z,8.45
2023-05-10T14:53:16.686Z,8.70
2023-05-10T14:55:43.456Z,8.18
2023-05-10T14:58:10.033Z,7.75
2023-05-10T15:00:41.572Z,8.25
2023-05-10T15:03:08.669Z,7.65
2023-05-10T15:05:39.781Z,7.97
2023-05-10T15:08:06.443Z,7.88
2023-05-10T15:10:34.364Z,7.88
2023-05-10T15:13:01.412Z,7.35
2023-05-10T15:15:28.000Z,8.40
2023-05-10T15:17:54.589Z,7.13
2023-05-10T15:20:21.232Z,8.10
2023-05-10T15:22:49.176Z,7.13
2023-05-10T15:25:15.859Z,7.43
2023-05-10T15:27:42.741Z,7.80
2023-05-10T15:30:10.395Z,7.63
2023-05-10T15:32:36.959Z,7.78
2023-05-10T15:35:03.813Z,7.72
2023-05-10T15:37:32.963Z,7.53
2023-05-10T15:40:01.329Z,7.05
2023-05-10T15:42:27.885Z,6.77
2023-05-10T15:44:54.474Z,6.53
2023-05-10T15:47:21.121Z,6.70
2023-05-10T15:49:48.103Z,6.47
2023-05-10T15:52:14.677Z,6.18
2023-05-10T15:54:41.405Z,6.33
2023-05-10T15:57:09.343Z,6.05
2023-05-10T15:59:35.894Z,6.03
2023-05-10T16:02:02.581Z,5.78
2023-05-10T16:04:29.145Z,5.60
2023-05-10T16:06:55.810Z,5.57
2023-05-10T16:09:22.407Z,5.78
2023-05-10T16:11:49.041Z,5.75
2023-05-10T16:14:16.970Z,5.38
2023-05-10T16:16:43.643Z,5.95
2023-05-10T16:19:10.276Z,4.90
2023-05-10T16:21:36.926Z,6.00
2023-05-10T16:24:03.820Z,5.47
2023-05-10T16:26:30.481Z,5.70
2023-05-10T16:28:57.148Z,5.75
2023-05-10T16:31:25.102Z,5.07
2023-05-10T16:33:51.835Z,4.65
2023-05-10T16:36:18.683Z,4.65
2023-05-10T16:38:45.242Z,4.40
2023-05-10T16:41:11.812Z,3.35
2023-05-10T16:43:38.402Z,3.40
2023-05-10T16:46:10.244Z,2.78
2023-05-10T16:48:38.440Z,2.78
2023-05-10T16:51:05.045Z,2.78
2023-05-10T16:53:31.893Z,2.25
2023-05-10T16:55:58.464Z,2.00
2023-05-10T16:58:25.111Z,2.00
2023-05-10T17:00:51.732Z,1.77
2023-05-10T17:03:18.666Z,2.20
2023-05-10T17:05:46.668Z,1.70
2023-05-10T17:08:13.126Z,1.90
2023-05-10T17:10:40.148Z,1.60
2023-05-10T17:13:08.117Z,1.70
2023-05-10T17:15:36.763Z,1.60
2023-05-10T17:18:03.516Z,1.90
2023-05-10T17:20:30.147Z,1.77
2023-05-10T17:22:58.110Z,1.60
2023-05-10T17:25:24.783Z,1.55
2023-05-10T17:27:51.403Z,1.70
2023-05-10T17:30:18.018Z,1.70
2023-05-10T17:32:44.711Z,1.80
2023-05-10T17:35:14.198Z,1.55
2023-05-10T17:37:40.855Z,1.65
2023-05-10T17:40:10.251Z,1.58
2023-05-10T17:42:36.820Z,1.63
2023-05-10T17:45:03.681Z,1.50
2023-05-10T17:47:31.552Z,1.35
2023-05-10T17:49:58.200Z,1.70
2023-05-10T17:52:24.805Z,1.38
2023-05-10T17:54:51.366Z,1.50
2023-05-10T17:57:19.344Z,1.73
2023-05-10T17:59:45.902Z,1.50
2023-05-10T18:02:13.267Z,2.00
2023-05-10T18:04:40.126Z,1.50
2023-05-10T18:07:06.995Z,1.58
2023-05-10T18:09:33.492Z,1.60
2023-05-10T18:12:01.710Z,1.40
2023-05-10T18:14:39.697Z,1.50
2023-05-10T18:17:07.572Z,1.40
2023-05-10T18:19:34.330Z,1.50
2023-05-10T18:22:00.913Z,1.53
2023-05-10T18:24:38.320Z,1.52
2023-05-10T18:27:06.092Z,1.55
2023-05-10T18:29:34.322Z,2.05
2023-05-10T18:32:00.881Z,2.00
2023-05-10T18:34:27.441Z,1.80
2023-05-10T18:36:54.097Z,1.98
2023-05-10T18:39:20.793Z,1.80
2023-05-10T18:41:47.494Z,2.17
2023-05-10T18:44:14.157Z,2.25
2023-05-10T18:46:42.300Z,2.20
2023-05-10T18:49:08.958Z,2.10
2023-05-10T18:51:35.650Z,2.13
2023-05-10T18:54:02.223Z,2.60
2023-05-10T18:56:28.793Z,2.60
2023-05-10T18:58:55.314Z,2.53
2023-05-10T19:01:21.868Z,2.25
2023-05-10T19:03:49.806Z,2.20
2023-05-10T19:06:16.388Z,2.25
2023-05-10T19:08:43.058Z,2.40
2023-05-10T19:11:09.618Z,2.20
2023-05-10T19:13:36.470Z,2.60
2023-05-10T19:16:04.707Z,2.70
2023-05-10T19:18:33.219Z,2.20
2023-05-10T19:21:02.140Z,2.40
2023-05-10T19:23:28.840Z,2.40
2023-05-10T19:25:55.394Z,2.40
2023-05-10T19:28:22.006Z,2.60
2023-05-10T19:30:48.664Z,2.97
2023-05-10T19:33:15.290Z,2.70
2023-05-10T19:35:41.943Z,3.17
2023-05-10T19:38:10.003Z,3.20
2023-05-10T19:40:36.571Z,2.85
2023-05-10T19:43:03.282Z,3.00
2023-05-10T19:45:30.066Z,2.95
2023-05-10T19:47:56.628Z,3.10
2023-05-10T19:50:23.299Z,3.08
2023-05-10T19:52:50.627Z,2.83
2023-05-10T19:55:27.055Z,3.10
2023-05-10T19:57:53.712Z,2.90
2023-05-10T20:00:20.338Z,3.20
2023-05-10T20:02:46.971Z,3.33
2023-05-10T20:05:13.585Z,3.20
2023-05-10T20:07:40.166Z,3.05
2023-05-10T20:10:07.941Z,3.17
2023-05-10T20:12:35.938Z,3.50
2023-05-10T20:15:02.705Z,3.40
2023-05-10T20:17:29.580Z,3.50
2023-05-10T20:19:56.189Z,3.70
2023-05-10T20:22:22.732Z,3.75
2023-05-10T20:24:49.325Z,3.33
2023-05-10T20:27:16.969Z,3.42
2023-05-10T20:29:44.889Z,4.30
2023-05-10T20:32:11.443Z,3.90
2023-05-10T20:34:37.995Z,4.28
2023-05-10T20:37:04.551Z,4.53
2023-05-10T20:39:31.128Z,4.57
2023-05-10T20:41:57.699Z,4.47
2023-05-10T20:44:24.332Z,4.63
2023-05-10T20:46:53.025Z,4.60
2023-05-10T20:49:19.596Z,5.10
2023-05-10T20:51:56.494Z,4.65
2023-05-10T20:54:23.128Z,5.18
2023-05-10T20:56:49.839Z,5.35
2023-05-10T20:59:16.459Z,5.20
2023-05-10T21:01:43.041Z,5.60
2023-05-10T21:04:11.061Z,5.65
2023-05-10T21:06:38.308Z,5.30
2023-05-10T21:09:05.025Z,5.30
2023-05-10T21:11:35.942Z,5.55
2023-05-10T21:14:02.776Z,5.80
2023-05-10T21:16:29.386Z,5.38
2023-05-10T21:18:56.018Z,5.65
2023-05-10T21:21:24.012Z,5.75
2023-05-10T21:23:50.576Z,5.47
2023-05-10T21:26:17.159Z,5.53
2023-05-10T21:28:44.305Z,5.38
2023-05-10T21:31:11.001Z,4.90
2023-05-10T21:33:37.574Z,5.43
2023-05-10T21:36:04.895Z,5.30
2023-05-10T21:38:33.291Z,5.70
2023-05-10T21:41:15.470Z,5.13
2023-05-10T21:43:42.649Z,5.30
2023-05-10T21:46:09.428Z,5.63
2023-05-10T21:48:36.337Z,5.65
2023-05-10T21:51:03.033Z,6.00
2023-05-10T21:53:29.553Z,5.75
2023-05-10T21:55:57.535Z,5.97
2023-05-10T21:58:24.211Z,6.10
2023-05-10T22:00:51.015Z,5.82
2023-05-10T22:03:18.321Z,5.83
2023-05-10T22:05:45.038Z,6.32
2023-05-10T22:08:11.678Z,6.05
2023-05-10T22:10:38.327Z,6.38
2023-05-10T22:13:06.514Z,6.65
2023-05-10T22:15:35.545Z,6.50
2023-05-10T22:18:03.064Z,6.20
2023-05-10T22:20:29.807Z,6.28
2023-05-10T22:22:56.372Z,6.07
2023-05-10T22:25:22.911Z,6.35
2023-05-10T22:30:32.783Z,6.45
2023-05-10T22:32:59.724Z,6.80
2023-05-10T22:35:26.346Z,6.40
2023-05-10T22:37:52.917Z,7.53
2023-05-10T22:40:19.635Z,7.33
2023-05-10T22:42:46.279Z,7.57
2023-05-10T22:45:12.873Z,7.72
2023-05-10T22:47:41.369Z,7.15
2023-05-10T22:50:09.200Z,7.80
2023-05-10T22:52:35.752Z,8.37
2023-05-10T22:55:02.274Z,8.13
2023-05-10T22:57:29.378Z,8.40
2023-05-10T22:59:55.931Z,8.07
2023-05-10T23:02:22.623Z,8.30
2023-05-10T23:04:50.793Z,7.87
2023-05-10T23:07:17.333Z,7.72
2023-05-10T23:09:43.888Z,8.80
2023-05-10T23:12:10.469Z,8.60
2023-05-10T23:14:37.003Z,8.60
2023-05-10T23:17:03.552Z,8.40
2023-05-10T23:19:30.162Z,8.82
2023-05-10T23:21:58.083Z,8.55
2023-05-10T23:24:24.623Z,8.65
2023-05-10T23:26:51.453Z,9.10
2023-05-10T23:29:18.136Z,8.40
2023-05-10T23:31:44.713Z,9.05
2023-05-10T23:34:11.391Z,9.43
2023-05-10T23:36:38.061Z,9.30
2023-05-10T23:39:06.608Z,7.68
2023-05-10T23:41:33.158Z,8.40
2023-05-10T23:43:59.881Z,7.70
2023-05-10T23:46:26.516Z,8.98
2023-05-10T23:48:53.299Z,9.07
2023-05-10T23:51:19.847Z,8.98
2023-05-10T23:53:46.436Z,8.87
2023-05-10T23:56:14.496Z,9.68
2023-05-10T23:58:41.047Z,9.75
